sensor_id;sensor_type;location;lat;lon;timestamp;P1;durP1;ratioP1;P2;durP2;ratioP2
61903;SDS011;47857;52.270;6.804;2023-08-08T00:01:45;8.43;;;3.67;;
61903;SDS011;47857;52.270;6.804;2023-08-08T00:04:10;6.88;;;3.75;;
61903;SDS011;47857;52.270;6.804;2023-08-08T00:06:36;7.40;;;3.67;;
61903;SDS011;47857;52.270;6.804;2023-08-08T00:09:02;10.63;;;4.05;;
61903;SDS011;47857;52.270;6.804;2023-08-08T00:11:29;7.10;;;3.80;;
61903;SDS011;47857;52.270;6.804;2023-08-08T00:13:55;8.50;;;4.00;;
61903;SDS011;47857;52.270;6.804;2023-08-08T00:16:21;9.25;;;3.80;;
61903;SDS011;47857;52.270;6.804;2023-08-08T00:18:47;6.65;;;4.22;;
61903;SDS011;47857;52.270;6.804;2023-08-08T00:21:14;6.75;;;3.55;;
61903;SDS011;47857;52.270;6.804;2023-08-08T00:23:40;8.35;;;3.80;;
61903;SDS011;47857;52.270;6.804;2023-08-08T00:26:05;6.35;;;4.13;;
61903;SDS011;47857;52.270;6.804;2023-08-08T00:28:31;7.85;;;3.95;;
61903;SDS011;47857;52.270;6.804;2023-08-08T00:30:56;9.90;;;4.40;;
61903;SDS011;47857;52.270;6.804;2023-08-08T00:33:22;6.18;;;4.30;;
61903;SDS011;47857;52.270;6.804;2023-08-08T00:35:47;7.72;;;4.43;;
61903;SDS011;47857;52.270;6.804;2023-08-08T00:38:13;8.55;;;3.70;;
61903;SDS011;47857;52.270;6.804;2023-08-08T00:40:40;8.63;;;4.10;;
61903;SDS011;47857;52.270;6.804;2023-08-08T00:43:05;8.20;;;3.92;;
61903;SDS011;47857;52.270;6.804;2023-08-08T00:45:31;6.30;;;3.50;;
61903;SDS011;47857;52.270;6.804;2023-08-08T00:47:56;8.65;;;3.55;;
61903;SDS011;47857;52.270;6.804;2023-08-08T00:50:22;6.63;;;3.42;;
61903;SDS011;47857;52.270;6.804;2023-08-08T00:52:48;7.50;;;3.72;;
61903;SDS011;47857;52.270;6.804;2023-08-08T00:55:15;8.02;;;3.45;;
61903;SDS011;47857;52.270;6.804;2023-08-08T00:57:41;4.40;;;2.90;;
61903;SDS011;47857;52.270;6.804;2023-08-08T01:00:07;4.97;;;3.20;;
61903;SDS011;47857;52.270;6.804;2023-08-08T01:02:37;7.57;;;3.45;;
61903;SDS011;47857;52.270;6.804;2023-08-08T01:05:03;9.10;;;3.50;;
61903;SDS011;47857;52.270;6.804;2023-08-08T01:10:00;5.00;;;3.00;;
61903;SDS011;47857;52.270;6.804;2023-08-08T01:12:33;6.07;;;3.38;;
61903;SDS011;47857;52.270;6.804;2023-08-08T01:15:04;7.90;;;3.20;;
61903;SDS011;47857;52.270;6.804;2023-08-08T01:17:32;16.23;;;7.03;;
61903;SDS011;47857;52.270;6.804;2023-08-08T01:19:59;17.00;;;8.55;;
61903;SDS011;47857;52.270;6.804;2023-08-08T01:22:25;17.77;;;9.80;;
61903;SDS011;47857;52.270;6.804;2023-08-08T01:24:57;21.30;;;8.90;;
61903;SDS011;47857;52.270;6.804;2023-08-08T01:27:23;14.02;;;5.38;;
61903;SDS011;47857;52.270;6.804;2023-08-08T01:29:48;10.93;;;4.72;;
61903;SDS011;47857;52.270;6.804;2023-08-08T01:32:14;7.18;;;3.53;;
61903;SDS011;47857;52.270;6.804;2023-08-08T01:34:39;8.20;;;3.60;;
61903;SDS011;47857;52.270;6.804;2023-08-08T01:37:13;8.60;;;3.20;;
61903;SDS011;47857;52.270;6.804;2023-08-08T01:39:44;6.72;;;3.20;;
61903;SDS011;47857;52.270;6.804;2023-08-08T01:42:12;7.90;;;3.15;;
61903;SDS011;47857;52.270;6.804;2023-08-08T01:44:38;12.55;;;3.85;;
61903;SDS011;47857;52.270;6.804;2023-08-08T01:47:06;9.90;;;3.70;;
61903;SDS011;47857;52.270;6.804;2023-08-08T01:49:33;9.25;;;3.88;;
61903;SDS011;47857;52.270;6.804;2023-08-08T01:51:58;10.23;;;4.10;;
61903;SDS011;47857;52.270;6.804;2023-08-08T01:54:24;8.75;;;3.85;;
61903;SDS011;47857;52.270;6.804;2023-08-08T01:56:49;10.38;;;4.03;;
61903;SDS011;47857;52.270;6.804;2023-08-08T01:59:15;8.50;;;3.92;;
61903;SDS011;47857;52.270;6.804;2023-08-08T02:01:40;7.45;;;4.45;;
61903;SDS011;47857;52.270;6.804;2023-08-08T02:04:06;10.25;;;4.43;;
61903;SDS011;47857;52.270;6.804;2023-08-08T02:06:31;10.20;;;4.40;;
61903;SDS011;47857;52.270;6.804;2023-08-08T02:08:57;10.15;;;4.60;;
61903;SDS011;47857;52.270;6.804;2023-08-08T02:11:23;11.30;;;4.72;;
61903;SDS011;47857;52.270;6.804;2023-08-08T02:13:48;9.07;;;4.43;;
61903;SDS011;47857;52.270;6.804;2023-08-08T02:16:14;16.42;;;5.32;;
61903;SDS011;47857;52.270;6.804;2023-08-08T02:18:40;11.70;;;4.85;;
61903;SDS011;47857;52.270;6.804;2023-08-08T02:21:09;8.80;;;5.05;;
61903;SDS011;47857;52.270;6.804;2023-08-08T02:23:34;11.48;;;5.38;;
61903;SDS011;47857;52.270;6.804;2023-08-08T02:26:00;11.95;;;5.32;;
61903;SDS011;47857;52.270;6.804;2023-08-08T02:28:26;14.30;;;5.60;;
61903;SDS011;47857;52.270;6.804;2023-08-08T02:30:52;10.80;;;5.55;;
61903;SDS011;47857;52.270;6.804;2023-08-08T02:33:18;10.05;;;5.32;;
61903;SDS011;47857;52.270;6.804;2023-08-08T02:35:44;9.15;;;5.13;;
61903;SDS011;47857;52.270;6.804;2023-08-08T02:38:10;10.38;;;5.03;;
61903;SDS011;47857;52.270;6.804;2023-08-08T02:40:38;9.85;;;5.80;;
61903;SDS011;47857;52.270;6.804;2023-08-08T02:43:04;12.55;;;5.20;;
61903;SDS011;47857;52.270;6.804;2023-08-08T02:45:30;12.68;;;6.35;;
61903;SDS011;47857;52.270;6.804;2023-08-08T02:47:55;11.20;;;5.47;;
61903;SDS011;47857;52.270;6.804;2023-08-08T02:50:21;10.40;;;5.40;;
61903;SDS011;47857;52.270;6.804;2023-08-08T02:52:46;11.68;;;5.97;;
61903;SDS011;47857;52.270;6.804;2023-08-08T02:55:12;13.02;;;6.32;;
61903;SDS011;47857;52.270;6.804;2023-08-08T02:57:39;12.35;;;5.70;;
61903;SDS011;47857;52.270;6.804;2023-08-08T03:00:05;13.68;;;6.32;;
61903;SDS011;47857;52.270;6.804;2023-08-08T03:02:38;11.82;;;6.20;;
61903;SDS011;47857;52.270;6.804;2023-08-08T03:05:03;10.30;;;6.10;;
61903;SDS011;47857;52.270;6.804;2023-08-08T03:07:29;14.70;;;5.70;;
61903;SDS011;47857;52.270;6.804;2023-08-08T03:09:55;15.80;;;6.30;;
61903;SDS011;47857;52.270;6.804;2023-08-08T03:12:21;11.15;;;5.78;;
61903;SDS011;47857;52.270;6.804;2023-08-08T03:14:50;13.63;;;6.13;;
61903;SDS011;47857;52.270;6.804;2023-08-08T03:17:15;10.75;;;6.13;;
61903;SDS011;47857;52.270;6.804;2023-08-08T03:19:41;13.35;;;6.18;;
61903;SDS011;47857;52.270;6.804;2023-08-08T03:22:07;17.65;;;6.70;;
61903;SDS011;47857;52.270;6.804;2023-08-08T03:24:36;14.32;;;6.15;;
61903;SDS011;47857;52.270;6.804;2023-08-08T03:27:01;13.05;;;6.28;;
61903;SDS011;47857;52.270;6.804;2023-08-08T03:29:27;13.77;;;6.38;;
61903;SDS011;47857;52.270;6.804;2023-08-08T03:31:55;13.15;;;6.30;;
61903;SDS011;47857;52.270;6.804;2023-08-08T03:34:21;18.08;;;6.47;;
61903;SDS011;47857;52.270;6.804;2023-08-08T03:36:46;17.92;;;6.63;;
61903;SDS011;47857;52.270;6.804;2023-08-08T03:39:12;11.98;;;6.07;;
61903;SDS011;47857;52.270;6.804;2023-08-08T03:41:38;14.63;;;6.22;;
61903;SDS011;47857;52.270;6.804;2023-08-08T03:44:04;14.20;;;6.90;;
61903;SDS011;47857;52.270;6.804;2023-08-08T03:46:30;13.95;;;6.30;;
61903;SDS011;47857;52.270;6.804;2023-08-08T03:48:55;16.05;;;6.32;;
61903;SDS011;47857;52.270;6.804;2023-08-08T03:51:21;13.23;;;6.90;;
61903;SDS011;47857;52.270;6.804;2023-08-08T03:53:46;15.07;;;6.78;;
61903;SDS011;47857;52.270;6.804;2023-08-08T03:56:12;14.13;;;7.05;;
61903;SDS011;47857;52.270;6.804;2023-08-08T03:58:38;16.08;;;6.72;;
61903;SDS011;47857;52.270;6.804;2023-08-08T04:01:04;13.57;;;6.95;;
61903;SDS011;47857;52.270;6.804;2023-08-08T04:03:30;16.95;;;6.70;;
61903;SDS011;47857;52.270;6.804;2023-08-08T04:05:56;15.15;;;6.63;;
61903;SDS011;47857;52.270;6.804;2023-08-08T04:08:22;16.50;;;7.28;;
61903;SDS011;47857;52.270;6.804;2023-08-08T04:10:47;16.08;;;7.00;;
61903;SDS011;47857;52.270;6.804;2023-08-08T04:13:13;17.30;;;6.85;;
61903;SDS011;47857;52.270;6.804;2023-08-08T04:15:38;15.55;;;6.45;;
61903;SDS011;47857;52.270;6.804;2023-08-08T04:18:05;13.90;;;6.38;;
61903;SDS011;47857;52.270;6.804;2023-08-08T04:20:34;10.93;;;5.80;;
61903;SDS011;47857;52.270;6.804;2023-08-08T04:22:59;17.50;;;6.80;;
61903;SDS011;47857;52.270;6.804;2023-08-08T04:25:26;15.23;;;6.45;;
61903;SDS011;47857;52.270;6.804;2023-08-08T04:27:51;18.20;;;7.07;;
61903;SDS011;47857;52.270;6.804;2023-08-08T04:30:17;13.13;;;6.90;;
61903;SDS011;47857;52.270;6.804;2023-08-08T04:32:43;17.45;;;6.68;;
61903;SDS011;47857;52.270;6.804;2023-08-08T04:35:08;11.93;;;6.07;;
61903;SDS011;47857;52.270;6.804;2023-08-08T04:37:34;11.77;;;6.10;;
61903;SDS011;47857;52.270;6.804;2023-08-08T04:39:59;16.17;;;6.30;;
61903;SDS011;47857;52.270;6.804;2023-08-08T04:42:25;11.88;;;6.43;;
61903;SDS011;47857;52.270;6.804;2023-08-08T04:44:50;13.48;;;6.50;;
61903;SDS011;47857;52.270;6.804;2023-08-08T04:47:16;13.45;;;6.43;;
61903;SDS011;47857;52.270;6.804;2023-08-08T04:49:41;14.18;;;6.50;;
61903;SDS011;47857;52.270;6.804;2023-08-08T04:52:07;10.27;;;5.78;;
61903;SDS011;47857;52.270;6.804;2023-08-08T04:54:32;13.35;;;5.90;;
61903;SDS011;47857;52.270;6.804;2023-08-08T04:56:58;15.18;;;6.13;;
61903;SDS011;47857;52.270;6.804;2023-08-08T04:59:23;14.55;;;6.10;;
61903;SDS011;47857;52.270;6.804;2023-08-08T05:01:49;12.57;;;5.32;;
61903;SDS011;47857;52.270;6.804;2023-08-08T05:04:14;16.30;;;8.30;;
61903;SDS011;47857;52.270;6.804;2023-08-08T05:06:40;13.63;;;6.82;;
61903;SDS011;47857;52.270;6.804;2023-08-08T05:09:05;34.00;;;18.52;;
61903;SDS011;47857;52.270;6.804;2023-08-08T05:11:34;18.05;;;7.22;;
61903;SDS011;47857;52.270;6.804;2023-08-08T05:13:59;16.35;;;6.90;;
61903;SDS011;47857;52.270;6.804;2023-08-08T05:16:25;17.67;;;10.18;;
61903;SDS011;47857;52.270;6.804;2023-08-08T05:18:50;14.60;;;6.82;;
61903;SDS011;47857;52.270;6.804;2023-08-08T05:21:16;12.02;;;5.05;;
61903;SDS011;47857;52.270;6.804;2023-08-08T05:23:41;9.93;;;4.63;;
61903;SDS011;47857;52.270;6.804;2023-08-08T05:26:07;9.98;;;4.40;;
61903;SDS011;47857;52.270;6.804;2023-08-08T05:28:32;11.77;;;4.45;;
61903;SDS011;47857;52.270;6.804;2023-08-08T05:30:58;11.93;;;4.30;;
61903;SDS011;47857;52.270;6.804;2023-08-08T05:33:24;12.70;;;4.80;;
61903;SDS011;47857;52.270;6.804;2023-08-08T05:35:49;9.32;;;4.40;;
61903;SDS011;47857;52.270;6.804;2023-08-08T05:38:15;8.10;;;4.43;;
61903;SDS011;47857;52.270;6.804;2023-08-08T05:40:41;10.48;;;4.72;;
61903;SDS011;47857;52.270;6.804;2023-08-08T05:43:07;13.07;;;5.00;;
61903;SDS011;47857;52.270;6.804;2023-08-08T05:45:33;10.48;;;4.68;;
61903;SDS011;47857;52.270;6.804;2023-08-08T05:47:59;12.18;;;4.95;;
61903;SDS011;47857;52.270;6.804;2023-08-08T05:50:28;11.55;;;4.53;;
61903;SDS011;47857;52.270;6.804;2023-08-08T05:52:54;14.70;;;5.30;;
61903;SDS011;47857;52.270;6.804;2023-08-08T05:55:19;12.05;;;4.72;;
61903;SDS011;47857;52.270;6.804;2023-08-08T05:57:45;13.02;;;4.95;;
61903;SDS011;47857;52.270;6.804;2023-08-08T06:00:10;10.55;;;4.80;;
61903;SDS011;47857;52.270;6.804;2023-08-08T06:02:40;11.88;;;4.60;;
61903;SDS011;47857;52.270;6.804;2023-08-08T06:05:06;10.27;;;4.75;;
61903;SDS011;47857;52.270;6.804;2023-08-08T06:07:32;9.02;;;4.10;;
61903;SDS011;47857;52.270;6.804;2023-08-08T06:09:58;14.10;;;4.70;;
61903;SDS011;47857;52.270;6.804;2023-08-08T06:12:24;8.70;;;4.40;;
61903;SDS011;47857;52.270;6.804;2023-08-08T06:14:49;14.68;;;5.13;;
61903;SDS011;47857;52.270;6.804;2023-08-08T06:17:15;10.45;;;4.72;;
61903;SDS011;47857;52.270;6.804;2023-08-08T06:19:40;12.32;;;4.45;;
61903;SDS011;47857;52.270;6.804;2023-08-08T06:22:06;13.73;;;4.60;;
61903;SDS011;47857;52.270;6.804;2023-08-08T06:24:31;11.65;;;4.22;;
61903;SDS011;47857;52.270;6.804;2023-08-08T06:26:57;12.40;;;4.80;;
61903;SDS011;47857;52.270;6.804;2023-08-08T06:29:23;17.02;;;5.25;;
61903;SDS011;47857;52.270;6.804;2023-08-08T06:31:48;10.32;;;4.30;;
61903;SDS011;47857;52.270;6.804;2023-08-08T06:34:14;9.57;;;4.00;;
61903;SDS011;47857;52.270;6.804;2023-08-08T06:36:40;12.13;;;4.10;;
61903;SDS011;47857;52.270;6.804;2023-08-08T06:39:06;8.25;;;3.45;;
61903;SDS011;47857;52.270;6.804;2023-08-08T06:41:31;9.18;;;3.53;;
61903;SDS011;47857;52.270;6.804;2023-08-08T06:43:57;7.47;;;3.22;;
61903;SDS011;47857;52.270;6.804;2023-08-08T06:46:23;9.00;;;3.17;;
61903;SDS011;47857;52.270;6.804;2023-08-08T06:48:49;10.15;;;3.20;;
61903;SDS011;47857;52.270;6.804;2023-08-08T06:51:18;11.98;;;3.10;;
61903;SDS011;47857;52.270;6.804;2023-08-08T06:53:43;10.05;;;3.10;;
61903;SDS011;47857;52.270;6.804;2023-08-08T06:56:09;8.52;;;2.95;;
61903;SDS011;47857;52.270;6.804;2023-08-08T06:58:34;13.02;;;2.92;;
61903;SDS011;47857;52.270;6.804;2023-08-08T07:01:00;8.43;;;2.20;;
61903;SDS011;47857;52.270;6.804;2023-08-08T07:03:25;8.95;;;2.50;;
61903;SDS011;47857;52.270;6.804;2023-08-08T07:05:51;7.05;;;2.20;;
61903;SDS011;47857;52.270;6.804;2023-08-08T07:08:17;10.40;;;2.45;;
61903;SDS011;47857;52.270;6.804;2023-08-08T07:10:44;7.75;;;2.10;;
61903;SDS011;47857;52.270;6.804;2023-08-08T07:13:09;7.70;;;2.17;;
61903;SDS011;47857;52.270;6.804;2023-08-08T07:15:35;8.77;;;2.00;;
61903;SDS011;47857;52.270;6.804;2023-08-08T07:18:00;7.75;;;1.95;;
61903;SDS011;47857;52.270;6.804;2023-08-08T07:20:26;10.07;;;2.33;;
61903;SDS011;47857;52.270;6.804;2023-08-08T07:22:51;8.40;;;2.10;;
61903;SDS011;47857;52.270;6.804;2023-08-08T07:25:17;6.15;;;1.70;;
61903;SDS011;47857;52.270;6.804;2023-08-08T07:27:42;10.07;;;2.08;;
61903;SDS011;47857;52.270;6.804;2023-08-08T07:30:08;8.05;;;1.88;;
61903;SDS011;47857;52.270;6.804;2023-08-08T07:32:34;8.15;;;2.00;;
61903;SDS011;47857;52.270;6.804;2023-08-08T07:34:59;4.97;;;1.90;;
61903;SDS011;47857;52.270;6.804;2023-08-08T07:37:27;8.05;;;1.70;;
61903;SDS011;47857;52.270;6.804;2023-08-08T07:39:53;7.65;;;1.92;;
61903;SDS011;47857;52.270;6.804;2023-08-08T07:42:18;7.40;;;1.90;;
61903;SDS011;47857;52.270;6.804;2023-08-08T07:44:44;7.10;;;1.88;;
61903;SDS011;47857;52.270;6.804;2023-08-08T07:47:09;5.50;;;1.60;;
61903;SDS011;47857;52.270;6.804;2023-08-08T07:49:35;5.72;;;1.67;;
61903;SDS011;47857;52.270;6.804;2023-08-08T07:52:00;7.18;;;1.60;;
61903;SDS011;47857;52.270;6.804;2023-08-08T07:54:26;5.15;;;1.33;;
61903;SDS011;47857;52.270;6.804;2023-08-08T07:56:51;7.13;;;1.40;;
61903;SDS011;47857;52.270;6.804;2023-08-08T07:59:17;8.35;;;1.65;;
61903;SDS011;47857;52.270;6.804;2023-08-08T08:01:42;7.78;;;1.65;;
61903;SDS011;47857;52.270;6.804;2023-08-08T08:04:08;7.32;;;1.50;;
61903;SDS011;47857;52.270;6.804;2023-08-08T08:06:34;6.47;;;1.42;;
61903;SDS011;47857;52.270;6.804;2023-08-08T08:08:59;6.25;;;1.48;;
61903;SDS011;47857;52.270;6.804;2023-08-08T08:11:24;6.50;;;1.30;;
61903;SDS011;47857;52.270;6.804;2023-08-08T08:13:50;5.63;;;1.27;;
61903;SDS011;47857;52.270;6.804;2023-08-08T08:16:15;8.55;;;1.27;;
61903;SDS011;47857;52.270;6.804;2023-08-08T08:18:41;5.15;;;1.30;;
61903;SDS011;47857;52.270;6.804;2023-08-08T08:21:07;5.43;;;1.60;;
61903;SDS011;47857;52.270;6.804;2023-08-08T08:23:33;4.80;;;1.40;;
61903;SDS011;47857;52.270;6.804;2023-08-08T08:25:58;3.75;;;1.13;;
61903;SDS011;47857;52.270;6.804;2023-08-08T08:28:25;5.65;;;1.35;;
61903;SDS011;47857;52.270;6.804;2023-08-08T08:30:51;5.30;;;1.30;;
61903;SDS011;47857;52.270;6.804;2023-08-08T08:33:16;7.95;;;1.35;;
61903;SDS011;47857;52.270;6.804;2023-08-08T08:35:42;5.22;;;1.20;;
61903;SDS011;47857;52.270;6.804;2023-08-08T08:38:07;5.65;;;1.33;;
61903;SDS011;47857;52.270;6.804;2023-08-08T08:40:36;4.38;;;1.20;;
61903;SDS011;47857;52.270;6.804;2023-08-08T08:43:03;7.40;;;1.40;;
61903;SDS011;47857;52.270;6.804;2023-08-08T08:45:30;4.50;;;1.40;;
61903;SDS011;47857;52.270;6.804;2023-08-08T08:47:56;3.75;;;1.02;;
61903;SDS011;47857;52.270;6.804;2023-08-08T08:50:22;6.47;;;1.00;;
61903;SDS011;47857;52.270;6.804;2023-08-08T08:52:48;4.70;;;1.00;;
61903;SDS011;47857;52.270;6.804;2023-08-08T08:55:14;4.07;;;1.08;;
61903;SDS011;47857;52.270;6.804;2023-08-08T08:57:40;11.02;;;5.03;;
61903;SDS011;47857;52.270;6.804;2023-08-08T09:00:05;7.22;;;2.88;;
61903;SDS011;47857;52.270;6.804;2023-08-08T09:02:31;6.10;;;1.40;;
61903;SDS011;47857;52.270;6.804;2023-08-08T09:04:57;3.45;;;1.08;;
61903;SDS011;47857;52.270;6.804;2023-08-08T09:07:24;3.67;;;1.45;;
61903;SDS011;47857;52.270;6.804;2023-08-08T09:09:53;3.95;;;1.02;;
61903;SDS011;47857;52.270;6.804;2023-08-08T09:12:18;4.15;;;0.90;;
61903;SDS011;47857;52.270;6.804;2023-08-08T09:14:44;4.20;;;1.02;;
61903;SDS011;47857;52.270;6.804;2023-08-08T09:17:13;2.88;;;0.80;;
61903;SDS011;47857;52.270;6.804;2023-08-08T09:19:42;5.93;;;1.27;;
61903;SDS011;47857;52.270;6.804;2023-08-08T09:22:09;7.63;;;1.00;;
61903;SDS011;47857;52.270;6.804;2023-08-08T09:24:37;5.30;;;1.10;;
61903;SDS011;47857;52.270;6.804;2023-08-08T09:27:04;4.70;;;1.20;;
61903;SDS011;47857;52.270;6.804;2023-08-08T09:29:31;5.88;;;0.90;;
61903;SDS011;47857;52.270;6.804;2023-08-08T09:31:56;2.45;;;0.82;;
61903;SDS011;47857;52.270;6.804;2023-08-08T09:34:24;4.03;;;0.80;;
61903;SDS011;47857;52.270;6.804;2023-08-08T09:36:51;2.83;;;0.80;;
61903;SDS011;47857;52.270;6.804;2023-08-08T09:39:18;2.08;;;0.70;;
61903;SDS011;47857;52.270;6.804;2023-08-08T09:41:45;5.32;;;1.23;;
61903;SDS011;47857;52.270;6.804;2023-08-08T09:44:11;3.72;;;0.73;;
61903;SDS011;47857;52.270;6.804;2023-08-08T09:46:37;4.30;;;0.90;;
61903;SDS011;47857;52.270;6.804;2023-08-08T09:49:03;3.20;;;0.80;;
61903;SDS011;47857;52.270;6.804;2023-08-08T09:51:28;4.57;;;0.90;;
61903;SDS011;47857;52.270;6.804;2023-08-08T09:53:55;5.43;;;0.90;;
61903;SDS011;47857;52.270;6.804;2023-08-08T09:56:21;2.55;;;0.82;;
61903;SDS011;47857;52.270;6.804;2023-08-08T09:58:48;3.97;;;1.08;;
61903;SDS011;47857;52.270;6.804;2023-08-08T10:01:14;2.25;;;1.23;;
61903;SDS011;47857;52.270;6.804;2023-08-08T10:03:40;2.88;;;1.30;;
61903;SDS011;47857;52.270;6.804;2023-08-08T10:06:08;3.60;;;1.10;;
61903;SDS011;47857;52.270;6.804;2023-08-08T10:08:34;4.10;;;1.58;;
61903;SDS011;47857;52.270;6.804;2023-08-08T10:10:59;4.68;;;0.90;;
61903;SDS011;47857;52.270;6.804;2023-08-08T10:13:26;3.75;;;1.02;;
61903;SDS011;47857;52.270;6.804;2023-08-08T10:15:52;6.10;;;1.00;;
61903;SDS011;47857;52.270;6.804;2023-08-08T10:18:18;2.83;;;0.80;;
61903;SDS011;47857;52.270;6.804;2023-08-08T10:20:47;2.60;;;1.00;;
61903;SDS011;47857;52.270;6.804;2023-08-08T10:23:19;3.88;;;1.00;;
61903;SDS011;47857;52.270;6.804;2023-08-08T10:25:50;4.30;;;0.93;;
61903;SDS011;47857;52.270;6.804;2023-08-08T10:28:19;5.72;;;0.90;;
61903;SDS011;47857;52.270;6.804;2023-08-08T10:30:49;3.20;;;0.65;;
61903;SDS011;47857;52.270;6.804;2023-08-08T10:33:18;2.45;;;0.80;;
61903;SDS011;47857;52.270;6.804;2023-08-08T10:35:56;2.47;;;0.73;;
61903;SDS011;47857;52.270;6.804;2023-08-08T10:38:23;4.40;;;0.93;;
61903;SDS011;47857;52.270;6.804;2023-08-08T10:40:56;2.67;;;0.82;;
61903;SDS011;47857;52.270;6.804;2023-08-08T10:43:29;3.25;;;0.80;;
61903;SDS011;47857;52.270;6.804;2023-08-08T10:45:59;3.40;;;0.90;;
61903;SDS011;47857;52.270;6.804;2023-08-08T10:48:26;4.43;;;0.90;;
61903;SDS011;47857;52.270;6.804;2023-08-08T10:50:55;2.63;;;0.80;;
61903;SDS011;47857;52.270;6.804;2023-08-08T10:53:25;4.30;;;0.73;;
61903;SDS011;47857;52.270;6.804;2023-08-08T10:56:01;3.58;;;0.60;;
61903;SDS011;47857;52.270;6.804;2023-08-08T10:58:36;4.05;;;0.90;;
61903;SDS011;47857;52.270;6.804;2023-08-08T11:01:05;4.95;;;0.70;;
61903;SDS011;47857;52.270;6.804;2023-08-08T11:03:33;1.40;;;0.70;;
61903;SDS011;47857;52.270;6.804;2023-08-08T11:06:03;2.92;;;0.80;;
61903;SDS011;47857;52.270;6.804;2023-08-08T11:08:30;2.88;;;0.70;;
61903;SDS011;47857;52.270;6.804;2023-08-08T11:10:56;4.10;;;0.80;;
61903;SDS011;47857;52.270;6.804;2023-08-08T11:13:21;3.28;;;0.60;;
61903;SDS011;47857;52.270;6.804;2023-08-08T11:15:47;2.30;;;0.63;;
61903;SDS011;47857;52.270;6.804;2023-08-08T11:18:12;1.42;;;0.50;;
61903;SDS011;47857;52.270;6.804;2023-08-08T11:20:38;2.50;;;0.70;;
61903;SDS011;47857;52.270;6.804;2023-08-08T11:23:04;2.78;;;0.75;;
61903;SDS011;47857;52.270;6.804;2023-08-08T11:25:35;2.40;;;0.80;;
61903;SDS011;47857;52.270;6.804;2023-08-08T11:28:01;2.95;;;0.77;;
61903;SDS011;47857;52.270;6.804;2023-08-08T11:30:30;2.45;;;0.73;;
61903;SDS011;47857;52.270;6.804;2023-08-08T11:32:57;3.63;;;0.88;;
61903;SDS011;47857;52.270;6.804;2023-08-08T11:35:23;4.53;;;0.90;;
61903;SDS011;47857;52.270;6.804;2023-08-08T11:37:50;3.42;;;0.90;;
61903;SDS011;47857;52.270;6.804;2023-08-08T11:40:17;1.20;;;0.60;;
61903;SDS011;47857;52.270;6.804;2023-08-08T11:42:43;2.15;;;0.80;;
61903;SDS011;47857;52.270;6.804;2023-08-08T11:45:10;2.60;;;1.10;;
61903;SDS011;47857;52.270;6.804;2023-08-08T11:47:37;2.88;;;0.70;;
61903;SDS011;47857;52.270;6.804;2023-08-08T11:50:03;3.25;;;0.60;;
61903;SDS011;47857;52.270;6.804;2023-08-08T11:52:30;2.50;;;0.85;;
61903;SDS011;47857;52.270;6.804;2023-08-08T11:54:55;1.40;;;0.68;;
61903;SDS011;47857;52.270;6.804;2023-08-08T11:57:21;2.97;;;0.77;;
61903;SDS011;47857;52.270;6.804;2023-08-08T11:59:50;3.05;;;0.80;;
61903;SDS011;47857;52.270;6.804;2023-08-08T12:02:15;3.10;;;0.60;;
61903;SDS011;47857;52.270;6.804;2023-08-08T12:04:45;1.55;;;0.57;;
61903;SDS011;47857;52.270;6.804;2023-08-08T12:07:11;1.45;;;0.60;;
61903;SDS011;47857;52.270;6.804;2023-08-08T12:09:36;2.17;;;0.77;;
61903;SDS011;47857;52.270;6.804;2023-08-08T12:12:02;1.02;;;0.45;;
61903;SDS011;47857;52.270;6.804;2023-08-08T12:14:29;2.22;;;0.50;;
61903;SDS011;47857;52.270;6.804;2023-08-08T12:16:54;1.70;;;0.77;;
61903;SDS011;47857;52.270;6.804;2023-08-08T12:19:23;2.63;;;0.90;;
61903;SDS011;47857;52.270;6.804;2023-08-08T12:21:49;0.93;;;0.50;;
61903;SDS011;47857;52.270;6.804;2023-08-08T12:24:16;3.30;;;0.73;;
61903;SDS011;47857;52.270;6.804;2023-08-08T12:26:45;1.35;;;0.55;;
61903;SDS011;47857;52.270;6.804;2023-08-08T12:29:10;2.08;;;0.52;;
61903;SDS011;47857;52.270;6.804;2023-08-08T12:31:37;2.80;;;0.55;;
61903;SDS011;47857;52.270;6.804;2023-08-08T12:34:03;3.08;;;0.70;;
61903;SDS011;47857;52.270;6.804;2023-08-08T12:36:29;1.65;;;0.60;;
61903;SDS011;47857;52.270;6.804;2023-08-08T12:38:55;1.90;;;0.70;;
61903;SDS011;47857;52.270;6.804;2023-08-08T12:41:21;3.35;;;0.60;;
61903;SDS011;47857;52.270;6.804;2023-08-08T12:43:47;1.25;;;0.50;;
61903;SDS011;47857;52.270;6.804;2023-08-08T12:46:12;2.75;;;0.60;;
61903;SDS011;47857;52.270;6.804;2023-08-08T12:48:38;4.00;;;0.52;;
61903;SDS011;47857;52.270;6.804;2023-08-08T12:51:04;2.95;;;0.60;;
61903;SDS011;47857;52.270;6.804;2023-08-08T12:53:30;2.45;;;0.70;;
61903;SDS011;47857;52.270;6.804;2023-08-08T12:55:55;1.38;;;0.60;;
61903;SDS011;47857;52.270;6.804;2023-08-08T12:58:21;1.70;;;0.63;;
61903;SDS011;47857;52.270;6.804;2023-08-08T13:00:46;2.83;;;0.70;;
61903;SDS011;47857;52.270;6.804;2023-08-08T13:03:12;4.22;;;0.77;;
61903;SDS011;47857;52.270;6.804;2023-08-08T13:05:38;1.45;;;0.57;;
61903;SDS011;47857;52.270;6.804;2023-08-08T13:08:03;1.05;;;0.63;;
61903;SDS011;47857;52.270;6.804;2023-08-08T13:10:29;0.68;;;0.52;;
61903;SDS011;47857;52.270;6.804;2023-08-08T13:12:55;2.17;;;0.80;;
61903;SDS011;47857;52.270;6.804;2023-08-08T13:15:21;1.73;;;0.70;;
61903;SDS011;47857;52.270;6.804;2023-08-08T13:17:47;2.50;;;0.57;;
61903;SDS011;47857;52.270;6.804;2023-08-08T13:20:12;1.98;;;0.57;;
61903;SDS011;47857;52.270;6.804;2023-08-08T13:22:38;2.97;;;0.73;;
61903;SDS011;47857;52.270;6.804;2023-08-08T13:25:04;4.28;;;0.70;;
61903;SDS011;47857;52.270;6.804;2023-08-08T13:27:31;2.80;;;0.60;;
61903;SDS011;47857;52.270;6.804;2023-08-08T13:29:57;1.65;;;0.70;;
61903;SDS011;47857;52.270;6.804;2023-08-08T13:32:23;3.95;;;0.57;;
61903;SDS011;47857;52.270;6.804;2023-08-08T13:34:48;2.13;;;0.68;;
61903;SDS011;47857;52.270;6.804;2023-08-08T13:37:14;2.00;;;0.70;;
61903;SDS011;47857;52.270;6.804;2023-08-08T13:39:40;2.03;;;0.52;;
61903;SDS011;47857;52.270;6.804;2023-08-08T13:42:06;1.00;;;0.70;;
61903;SDS011;47857;52.270;6.804;2023-08-08T13:44:32;1.83;;;0.60;;
61903;SDS011;47857;52.270;6.804;2023-08-08T13:46:57;3.03;;;0.77;;
61903;SDS011;47857;52.270;6.804;2023-08-08T13:49:23;1.05;;;0.50;;
61903;SDS011;47857;52.270;6.804;2023-08-08T13:51:52;0.73;;;0.50;;
61903;SDS011;47857;52.270;6.804;2023-08-08T13:54:18;0.75;;;0.38;;
61903;SDS011;47857;52.270;6.804;2023-08-08T13:56:44;3.22;;;0.60;;
61903;SDS011;47857;52.270;6.804;2023-08-08T13:59:09;2.80;;;0.70;;
61903;SDS011;47857;52.270;6.804;2023-08-08T14:01:35;4.38;;;0.90;;
61903;SDS011;47857;52.270;6.804;2023-08-08T14:04:01;3.03;;;0.63;;
61903;SDS011;47857;52.270;6.804;2023-08-08T14:06:27;3.53;;;0.70;;
61903;SDS011;47857;52.270;6.804;2023-08-08T14:08:52;1.45;;;0.60;;
61903;SDS011;47857;52.270;6.804;2023-08-08T14:11:18;2.33;;;0.73;;
61903;SDS011;47857;52.270;6.804;2023-08-08T14:13:43;1.50;;;0.60;;
61903;SDS011;47857;52.270;6.804;2023-08-08T14:16:09;2.97;;;0.70;;
61903;SDS011;47857;52.270;6.804;2023-08-08T14:18:34;2.70;;;0.77;;
61903;SDS011;47857;52.270;6.804;2023-08-08T14:21:00;5.50;;;1.02;;
61903;SDS011;47857;52.270;6.804;2023-08-08T14:23:27;1.92;;;0.60;;
61903;SDS011;47857;52.270;6.804;2023-08-08T14:25:53;3.15;;;0.80;;
61903;SDS011;47857;52.270;6.804;2023-08-08T14:28:18;1.35;;;0.50;;
61903;SDS011;47857;52.270;6.804;2023-08-08T14:30:44;3.45;;;0.70;;
61903;SDS011;47857;52.270;6.804;2023-08-08T14:33:09;2.00;;;0.60;;
61903;SDS011;47857;52.270;6.804;2023-08-08T14:35:35;3.30;;;0.70;;
61903;SDS011;47857;52.270;6.804;2023-08-08T14:38:01;4.10;;;0.63;;
61903;SDS011;47857;52.270;6.804;2023-08-08T14:40:27;2.05;;;0.82;;